sensor_id;sensor_type;location;lat;lon;timestamp;P1;durP1;ratioP1;P2;durP2;ratioP2
72065;SDS011;59939;52.516;13.420;2023-04-06T00:03:11;17.37;;;7.30;;
72065;SDS011;59939;52.516;13.420;2023-04-06T00:06:18;15.27;;;7.70;;
72065;SDS011;59939;52.516;13.420;2023-04-06T00:09:21;18.27;;;7.33;;
72065;SDS011;59939;52.516;13.420;2023-04-06T00:12:25;12.07;;;5.50;;
72065;SDS011;59939;52.516;13.420;2023-04-06T00:15:37;18.93;;;6.70;;
72065;SDS011;59939;52.516;13.420;2023-04-06T00:18:44;15.60;;;6.70;;
72065;SDS011;59939;52.516;13.420;2023-04-06T00:21:49;16.17;;;6.77;;
72065;SDS011;59939;52.516;13.420;2023-04-06T00:24:53;19.33;;;7.93;;
72065;SDS011;59939;52.516;13.420;2023-04-06T00:28:11;17.77;;;6.93;;
72065;SDS011;59939;52.516;13.420;2023-04-06T00:31:17;17.20;;;7.63;;
72065;SDS011;59939;52.516;13.420;2023-04-06T00:34:20;16.30;;;6.37;;
72065;SDS011;59939;52.516;13.420;2023-04-06T00:37:24;14.13;;;6.37;;
72065;SDS011;59939;52.516;13.420;2023-04-06T00:40:28;13.83;;;6.17;;
72065;SDS011;59939;52.516;13.420;2023-04-06T00:43:32;17.47;;;7.50;;
72065;SDS011;59939;52.516;13.420;2023-04-06T00:46:36;17.63;;;6.30;;
72065;SDS011;59939;52.516;13.420;2023-04-06T00:49:40;14.70;;;6.10;;
72065;SDS011;59939;52.516;13.420;2023-04-06T00:52:44;14.40;;;5.80;;
72065;SDS011;59939;52.516;13.420;2023-04-06T00:55:48;17.10;;;6.63;;
72065;SDS011;59939;52.516;13.420;2023-04-06T00:58:55;15.13;;;5.80;;
72065;SDS011;59939;52.516;13.420;2023-04-06T01:02:08;18.83;;;7.80;;
72065;SDS011;59939;52.516;13.420;2023-04-06T01:05:22;12.97;;;6.10;;
72065;SDS011;59939;52.516;13.420;2023-04-06T01:08:30;14.83;;;6.13;;
72065;SDS011;59939;52.516;13.420;2023-04-06T01:11:48;19.00;;;6.63;;
72065;SDS011;59939;52.516;13.420;2023-04-06T01:14:55;16.67;;;6.37;;
72065;SDS011;59939;52.516;13.420;2023-04-06T01:18:00;16.40;;;5.90;;
72065;SDS011;59939;52.516;13.420;2023-04-06T01:21:12;15.77;;;6.53;;
72065;SDS011;59939;52.516;13.420;2023-04-06T01:24:33;18.13;;;6.90;;
72065;SDS011;59939;52.516;13.420;2023-04-06T01:27:45;14.97;;;6.23;;
72065;SDS011;59939;52.516;13.420;2023-04-06T01:30:49;16.87;;;6.80;;
72065;SDS011;59939;52.516;13.420;2023-04-06T01:34:11;16.50;;;7.10;;
72065;SDS011;59939;52.516;13.420;2023-04-06T01:37:15;17.37;;;6.87;;
72065;SDS011;59939;52.516;13.420;2023-04-06T01:40:19;16.07;;;7.00;;
72065;SDS011;59939;52.516;13.420;2023-04-06T01:43:27;15.50;;;6.10;;
72065;SDS011;59939;52.516;13.420;2023-04-06T01:46:37;15.07;;;6.00;;
72065;SDS011;59939;52.516;13.420;2023-04-06T01:49:43;16.07;;;6.00;;
72065;SDS011;59939;52.516;13.420;2023-04-06T01:52:47;16.27;;;6.20;;
72065;SDS011;59939;52.516;13.420;2023-04-06T01:55:51;14.80;;;6.30;;
72065;SDS011;59939;52.516;13.420;2023-04-06T01:59:02;15.80;;;7.10;;
72065;SDS011;59939;52.516;13.420;2023-04-06T02:02:13;16.53;;;6.60;;
72065;SDS011;59939;52.516;13.420;2023-04-06T02:05:25;16.47;;;7.00;;
72065;SDS011;59939;52.516;13.420;2023-04-06T02:08:31;16.27;;;6.77;;
72065;SDS011;59939;52.516;13.420;2023-04-06T02:11:36;15.93;;;6.80;;
72065;SDS011;59939;52.516;13.420;2023-04-06T02:14:40;16.50;;;6.93;;
72065;SDS011;59939;52.516;13.420;2023-04-06T02:17:44;16.23;;;6.40;;
72065;SDS011;59939;52.516;13.420;2023-04-06T02:20:49;17.33;;;6.27;;
72065;SDS011;59939;52.516;13.420;2023-04-06T02:23:52;15.90;;;6.57;;
72065;SDS011;59939;52.516;13.420;2023-04-06T02:26:57;19.67;;;6.80;;
72065;SDS011;59939;52.516;13.420;2023-04-06T02:30:02;16.23;;;6.17;;
72065;SDS011;59939;52.516;13.420;2023-04-06T02:33:06;19.20;;;6.93;;
72065;SDS011;59939;52.516;13.420;2023-04-06T02:36:18;14.50;;;6.13;;
72065;SDS011;59939;52.516;13.420;2023-04-06T02:39:22;16.63;;;6.27;;
72065;SDS011;59939;52.516;13.420;2023-04-06T02:42:27;16.33;;;6.57;;
72065;SDS011;59939;52.516;13.420;2023-04-06T02:45:31;14.53;;;6.30;;
72065;SDS011;59939;52.516;13.420;2023-04-06T02:48:37;12.40;;;5.53;;
72065;SDS011;59939;52.516;13.420;2023-04-06T02:51:41;16.00;;;6.73;;
72065;SDS011;59939;52.516;13.420;2023-04-06T02:54:58;15.37;;;6.20;;
72065;SDS011;59939;52.516;13.420;2023-04-06T02:58:06;17.23;;;6.80;;
72065;SDS011;59939;52.516;13.420;2023-04-06T03:01:19;15.83;;;6.17;;
72065;SDS011;59939;52.516;13.420;2023-04-06T03:04:29;14.83;;;6.77;;
72065;SDS011;59939;52.516;13.420;2023-04-06T03:07:35;16.97;;;7.17;;
72065;SDS011;59939;52.516;13.420;2023-04-06T03:10:39;20.87;;;6.30;;
72065;SDS011;59939;52.516;13.420;2023-04-06T03:13:43;20.93;;;7.90;;
72065;SDS011;59939;52.516;13.420;2023-04-06T03:16:48;18.90;;;8.43;;
72065;SDS011;59939;52.516;13.420;2023-04-06T03:19:57;20.63;;;10.50;;
72065;SDS011;59939;52.516;13.420;2023-04-06T03:23:01;20.90;;;10.13;;
72065;SDS011;59939;52.516;13.420;2023-04-06T03:26:12;22.07;;;9.73;;
72065;SDS011;59939;52.516;13.420;2023-04-06T03:29:16;22.63;;;10.47;;
72065;SDS011;59939;52.516;13.420;2023-04-06T03:32:20;23.37;;;11.27;;
72065;SDS011;59939;52.516;13.420;2023-04-06T03:35:24;19.17;;;9.97;;
72065;SDS011;59939;52.516;13.420;2023-04-06T03:38:28;21.00;;;11.00;;
72065;SDS011;59939;52.516;13.420;2023-04-06T03:41:32;18.73;;;10.37;;
72065;SDS011;59939;52.516;13.420;2023-04-06T03:44:54;25.40;;;9.37;;
72065;SDS011;59939;52.516;13.420;2023-04-06T03:47:59;15.03;;;6.43;;
72065;SDS011;59939;52.516;13.420;2023-04-06T03:51:05;20.43;;;9.50;;
72065;SDS011;59939;52.516;13.420;2023-04-06T03:54:10;20.00;;;9.93;;
72065;SDS011;59939;52.516;13.420;2023-04-06T03:57:15;19.73;;;9.03;;
72065;SDS011;59939;52.516;13.420;2023-04-06T04:00:22;17.00;;;9.20;;
72065;SDS011;59939;52.516;13.420;2023-04-06T04:03:40;21.47;;;10.53;;
72065;SDS011;59939;52.516;13.420;2023-04-06T04:06:53;16.93;;;8.87;;
72065;SDS011;59939;52.516;13.420;2023-04-06T04:09:59;23.03;;;11.10;;
72065;SDS011;59939;52.516;13.420;2023-04-06T04:13:03;21.03;;;10.93;;
72065;SDS011;59939;52.516;13.420;2023-04-06T04:16:07;22.23;;;11.73;;
72065;SDS011;59939;52.516;13.420;2023-04-06T04:19:12;20.57;;;10.20;;
72065;SDS011;59939;52.516;13.420;2023-04-06T04:22:23;22.30;;;10.50;;
72065;SDS011;59939;52.516;13.420;2023-04-06T04:25:32;21.20;;;10.87;;
72065;SDS011;59939;52.516;13.420;2023-04-06T04:28:36;19.03;;;8.50;;
72065;SDS011;59939;52.516;13.420;2023-04-06T04:31:42;20.30;;;10.63;;
72065;SDS011;59939;52.516;13.420;2023-04-06T04:34:53;21.00;;;9.87;;
72065;SDS011;59939;52.516;13.420;2023-04-06T04:38:09;21.63;;;10.70;;
72065;SDS011;59939;52.516;13.420;2023-04-06T04:41:17;21.53;;;10.63;;
72065;SDS011;59939;52.516;13.420;2023-04-06T04:44:37;20.30;;;10.23;;
72065;SDS011;59939;52.516;13.420;2023-04-06T04:47:44;23.10;;;11.57;;
72065;SDS011;59939;52.516;13.420;2023-04-06T04:50:50;23.73;;;11.47;;
72065;SDS011;59939;52.516;13.420;2023-04-06T04:53:58;21.10;;;11.90;;
72065;SDS011;59939;52.516;13.420;2023-04-06T04:57:09;23.57;;;11.27;;
72065;SDS011;59939;52.516;13.420;2023-04-06T05:00:18;22.07;;;10.40;;
72065;SDS011;59939;52.516;13.420;2023-04-06T05:03:23;25.27;;;12.37;;
72065;SDS011;59939;52.516;13.420;2023-04-06T05:06:34;23.73;;;12.13;;
72065;SDS011;59939;52.516;13.420;2023-04-06T05:09:45;22.13;;;10.87;;
72065;SDS011;59939;52.516;13.420;2023-04-06T05:12:49;21.23;;;10.23;;
72065;SDS011;59939;52.516;13.420;2023-04-06T05:15:53;19.97;;;11.10;;
72065;SDS011;59939;52.516;13.420;2023-04-06T05:19:03;20.23;;;10.50;;
72065;SDS011;59939;52.516;13.420;2023-04-06T05:22:15;22.40;;;10.60;;
72065;SDS011;59939;52.516;13.420;2023-04-06T05:25:25;24.37;;;11.57;;
72065;SDS011;59939;52.516;13.420;2023-04-06T05:28:33;21.80;;;10.93;;
72065;SDS011;59939;52.516;13.420;2023-04-06T05:31:38;19.40;;;10.53;;
72065;SDS011;59939;52.516;13.420;2023-04-06T05:34:56;19.97;;;9.60;;
72065;SDS011;59939;52.516;13.420;2023-04-06T05:38:00;18.70;;;10.13;;
72065;SDS011;59939;52.516;13.420;2023-04-06T05:41:06;19.23;;;9.07;;
72065;SDS011;59939;52.516;13.420;2023-04-06T05:44:10;22.23;;;9.20;;
72065;SDS011;59939;52.516;13.420;2023-04-06T05:47:27;19.57;;;9.27;;
72065;SDS011;59939;52.516;13.420;2023-04-06T05:50:41;18.80;;;9.20;;
72065;SDS011;59939;52.516;13.420;2023-04-06T05:53:53;21.33;;;9.90;;
72065;SDS011;59939;52.516;13.420;2023-04-06T05:57:01;20.97;;;9.33;;
72065;SDS011;59939;52.516;13.420;2023-04-06T06:03:40;19.37;;;9.30;;
72065;SDS011;59939;52.516;13.420;2023-04-06T06:06:52;23.30;;;8.73;;
72065;SDS011;59939;52.516;13.420;2023-04-06T06:10:03;18.77;;;8.20;;
72065;SDS011;59939;52.516;13.420;2023-04-06T06:13:12;19.77;;;9.37;;
72065;SDS011;59939;52.516;13.420;2023-04-06T06:16:17;24.33;;;9.43;;
72065;SDS011;59939;52.516;13.420;2023-04-06T06:19:23;21.37;;;9.13;;
72065;SDS011;59939;52.516;13.420;2023-04-06T06:22:30;18.67;;;8.60;;
72065;SDS011;59939;52.516;13.420;2023-04-06T06:25:35;21.17;;;9.43;;
72065;SDS011;59939;52.516;13.420;2023-04-06T06:28:39;22.47;;;9.47;;
72065;SDS011;59939;52.516;13.420;2023-04-06T06:31:45;21.20;;;9.17;;
72065;SDS011;59939;52.516;13.420;2023-04-06T06:34:53;17.97;;;9.67;;
72065;SDS011;59939;52.516;13.420;2023-04-06T06:37:59;19.40;;;9.00;;
72065;SDS011;59939;52.516;13.420;2023-04-06T06:41:05;19.87;;;9.60;;
72065;SDS011;59939;52.516;13.420;2023-04-06T06:44:11;24.27;;;9.47;;
72065;SDS011;59939;52.516;13.420;2023-04-06T06:47:15;22.53;;;9.20;;
72065;SDS011;59939;52.516;13.420;2023-04-06T06:50:20;21.20;;;9.90;;
72065;SDS011;59939;52.516;13.420;2023-04-06T06:53:25;19.30;;;8.20;;
72065;SDS011;59939;52.516;13.420;2023-04-06T06:56:29;22.80;;;8.60;;
72065;SDS011;59939;52.516;13.420;2023-04-06T06:59:34;22.93;;;9.57;;
72065;SDS011;59939;52.516;13.420;2023-04-06T07:02:39;24.87;;;8.40;;
72065;SDS011;59939;52.516;13.420;2023-04-06T07:05:46;21.40;;;8.03;;
72065;SDS011;59939;52.516;13.420;2023-04-06T07:08:57;18.60;;;7.30;;
72065;SDS011;59939;52.516;13.420;2023-04-06T07:12:05;19.33;;;7.87;;
72065;SDS011;59939;52.516;13.420;2023-04-06T07:15:12;15.50;;;7.13;;
72065;SDS011;59939;52.516;13.420;2023-04-06T07:18:17;18.03;;;6.97;;
72065;SDS011;59939;52.516;13.420;2023-04-06T07:21:22;17.87;;;7.17;;
72065;SDS011;59939;52.516;13.420;2023-04-06T07:24:35;19.13;;;7.70;;
72065;SDS011;59939;52.516;13.420;2023-04-06T07:27:41;15.33;;;6.53;;
72065;SDS011;59939;52.516;13.420;2023-04-06T07:30:48;16.27;;;7.07;;
72065;SDS011;59939;52.516;13.420;2023-04-06T07:37:23;15.90;;;6.93;;
72065;SDS011;59939;52.516;13.420;2023-04-06T07:40:27;16.00;;;7.00;;
72065;SDS011;59939;52.516;13.420;2023-04-06T07:43:33;16.17;;;6.47;;
72065;SDS011;59939;52.516;13.420;2023-04-06T07:46:37;14.00;;;5.97;;
72065;SDS011;59939;52.516;13.420;2023-04-06T07:49:42;15.20;;;5.77;;
72065;SDS011;59939;52.516;13.420;2023-04-06T07:52:48;16.83;;;6.40;;
72065;SDS011;59939;52.516;13.420;2023-04-06T07:55:53;16.33;;;6.30;;
72065;SDS011;59939;52.516;13.420;2023-04-06T07:59:04;15.10;;;6.13;;
72065;SDS011;59939;52.516;13.420;2023-04-06T08:02:08;17.73;;;6.17;;
72065;SDS011;59939;52.516;13.420;2023-04-06T08:05:12;17.50;;;6.73;;
72065;SDS011;59939;52.516;13.420;2023-04-06T08:08:16;15.37;;;5.50;;
72065;SDS011;59939;52.516;13.420;2023-04-06T08:11:21;14.73;;;5.23;;
72065;SDS011;59939;52.516;13.420;2023-04-06T08:14:25;15.23;;;5.03;;
72065;SDS011;59939;52.516;13.420;2023-04-06T08:17:29;18.27;;;6.40;;
72065;SDS011;59939;52.516;13.420;2023-04-06T08:20:34;11.83;;;3.37;;
72065;SDS011;59939;52.516;13.420;2023-04-06T08:23:38;11.87;;;4.20;;
72065;SDS011;59939;52.516;13.420;2023-04-06T08:26:42;11.03;;;3.93;;
72065;SDS011;59939;52.516;13.420;2023-04-06T08:29:49;11.73;;;4.50;;
72065;SDS011;59939;52.516;13.420;2023-04-06T08:32:53;7.60;;;3.30;;
72065;SDS011;59939;52.516;13.420;2023-04-06T08:35:58;10.20;;;3.67;;
72065;SDS011;59939;52.516;13.420;2023-04-06T08:39:04;12.30;;;3.90;;
72065;SDS011;59939;52.516;13.420;2023-04-06T08:42:16;9.20;;;3.40;;
72065;SDS011;59939;52.516;13.420;2023-04-06T08:45:22;9.00;;;3.53;;
72065;SDS011;59939;52.516;13.420;2023-04-06T08:48:27;8.23;;;2.93;;
72065;SDS011;59939;52.516;13.420;2023-04-06T08:51:31;14.83;;;3.50;;
72065;SDS011;59939;52.516;13.420;2023-04-06T08:54:35;9.33;;;3.93;;
72065;SDS011;59939;52.516;13.420;2023-04-06T08:57:39;10.07;;;3.47;;
72065;SDS011;59939;52.516;13.420;2023-04-06T09:00:43;10.33;;;3.10;;
72065;SDS011;59939;52.516;13.420;2023-04-06T09:03:49;7.67;;;2.93;;
72065;SDS011;59939;52.516;13.420;2023-04-06T09:06:55;6.43;;;2.60;;
72065;SDS011;59939;52.516;13.420;2023-04-06T09:10:02;9.30;;;2.97;;
72065;SDS011;59939;52.516;13.420;2023-04-06T09:13:09;10.47;;;2.90;;
72065;SDS011;59939;52.516;13.420;2023-04-06T09:16:13;10.03;;;3.07;;
72065;SDS011;59939;52.516;13.420;2023-04-06T09:19:18;8.43;;;2.70;;
72065;SDS011;59939;52.516;13.420;2023-04-06T09:22:22;8.65;;;2.75;;
72065;SDS011;59939;52.516;13.420;2023-04-06T09:25:26;6.65;;;2.70;;
72065;SDS011;59939;52.516;13.420;2023-04-06T09:28:46;8.02;;;2.75;;
72065;SDS011;59939;52.516;13.420;2023-04-06T09:31:50;8.20;;;2.83;;
72065;SDS011;59939;52.516;13.420;2023-04-06T09:35:09;10.80;;;2.85;;
72065;SDS011;59939;52.516;13.420;2023-04-06T09:38:13;7.28;;;3.35;;
72065;SDS011;59939;52.516;13.420;2023-04-06T09:41:35;7.65;;;2.70;;
72065;SDS011;59939;52.516;13.420;2023-04-06T09:44:39;7.65;;;2.58;;
72065;SDS011;59939;52.516;13.420;2023-04-06T09:47:43;9.33;;;2.87;;
72065;SDS011;59939;52.516;13.420;2023-04-06T09:50:49;10.60;;;2.80;;
72065;SDS011;59939;52.516;13.420;2023-04-06T09:54:01;7.82;;;2.80;;
72065;SDS011;59939;52.516;13.420;2023-04-06T09:57:15;8.27;;;2.70;;
72065;SDS011;59939;52.516;13.420;2023-04-06T10:00:22;9.05;;;2.80;;
72065;SDS011;59939;52.516;13.420;2023-04-06T10:06:31;10.23;;;2.88;;
72065;SDS011;59939;52.516;13.420;2023-04-06T10:09:36;5.95;;;2.55;;
72065;SDS011;59939;52.516;13.420;2023-04-06T10:12:45;7.47;;;2.42;;
72065;SDS011;59939;52.516;13.420;2023-04-06T10:15:50;4.93;;;2.30;;
72065;SDS011;59939;52.516;13.420;2023-04-06T10:19:00;6.22;;;2.70;;
72065;SDS011;59939;52.516;13.420;2023-04-06T10:22:06;7.75;;;2.30;;
72065;SDS011;59939;52.516;13.420;2023-04-06T10:25:14;8.80;;;2.65;;
72065;SDS011;59939;52.516;13.420;2023-04-06T10:28:19;4.68;;;2.10;;
72065;SDS011;59939;52.516;13.420;2023-04-06T10:31:39;7.72;;;2.53;;
72065;SDS011;59939;52.516;13.420;2023-04-06T10:34:45;5.18;;;2.05;;
72065;SDS011;59939;52.516;13.420;2023-04-06T10:37:54;5.35;;;2.10;;
72065;SDS011;59939;52.516;13.420;2023-04-06T10:41:04;6.03;;;2.28;;
72065;SDS011;59939;52.516;13.420;2023-04-06T10:44:16;8.32;;;2.88;;
72065;SDS011;59939;52.516;13.420;2023-04-06T10:47:20;6.28;;;2.40;;
72065;SDS011;59939;52.516;13.420;2023-04-06T10:50:26;5.60;;;2.30;;
72065;SDS011;59939;52.516;13.420;2023-04-06T10:53:33;4.00;;;2.03;;
72065;SDS011;59939;52.516;13.420;2023-04-06T10:56:37;6.35;;;2.28;;
72065;SDS011;59939;52.516;13.420;2023-04-06T10:59:42;7.03;;;2.20;;
72065;SDS011;59939;52.516;13.420;2023-04-06T11:02:47;5.20;;;2.40;;
72065;SDS011;59939;52.516;13.420;2023-04-06T11:05:52;7.75;;;2.50;;
72065;SDS011;59939;52.516;13.420;2023-04-06T11:08:55;3.83;;;1.85;;
72065;SDS011;59939;52.516;13.420;2023-04-06T11:11:59;5.07;;;1.60;;
72065;SDS011;59939;52.516;13.420;2023-04-06T11:15:04;10.23;;;2.97;;
72065;SDS011;59939;52.516;13.420;2023-04-06T11:18:10;3.78;;;1.70;;
72065;SDS011;59939;52.516;13.420;2023-04-06T11:21:14;6.47;;;2.78;;
72065;SDS011;59939;52.516;13.420;2023-04-06T11:24:19;6.70;;;2.50;;
72065;SDS011;59939;52.516;13.420;2023-04-06T11:27:32;8.00;;;2.70;;
72065;SDS011;59939;52.516;13.420;2023-04-06T11:30:37;7.65;;;3.10;;
72065;SDS011;59939;52.516;13.420;2023-04-06T11:33:41;7.95;;;2.22;;
72065;SDS011;59939;52.516;13.420;2023-04-06T11:36:45;6.28;;;2.15;;
72065;SDS011;59939;52.516;13.420;2023-04-06T11:39:51;4.57;;;2.50;;
72065;SDS011;59939;52.516;13.420;2023-04-06T11:42:59;6.95;;;2.70;;
72065;SDS011;59939;52.516;13.420;2023-04-06T11:46:03;9.43;;;2.78;;
72065;SDS011;59939;52.516;13.420;2023-04-06T11:49:07;7.25;;;2.40;;
72065;SDS011;59939;52.516;13.420;2023-04-06T11:52:22;7.95;;;2.67;;
72065;SDS011;59939;52.516;13.420;2023-04-06T11:55:37;7.72;;;2.42;;
72065;SDS011;59939;52.516;13.420;2023-04-06T11:58:41;8.25;;;2.80;;
72065;SDS011;59939;52.516;13.420;2023-04-06T12:01:45;8.20;;;2.50;;
72065;SDS011;59939;52.516;13.420;2023-04-06T12:04:49;7.00;;;2.65;;
72065;SDS011;59939;52.516;13.420;2023-04-06T12:07:55;5.55;;;2.58;;
72065;SDS011;59939;52.516;13.420;2023-04-06T12:10:59;6.38;;;2.53;;
72065;SDS011;59939;52.516;13.420;2023-04-06T12:14:04;8.32;;;2.85;;
72065;SDS011;59939;52.516;13.420;2023-04-06T12:17:08;8.13;;;2.63;;
72065;SDS011;59939;52.516;13.420;2023-04-06T12:20:12;6.97;;;2.72;;
72065;SDS011;59939;52.516;13.420;2023-04-06T12:23:24;6.82;;;2.60;;
72065;SDS011;59939;52.516;13.420;2023-04-06T12:26:29;8.63;;;2.72;;
72065;SDS011;59939;52.516;13.420;2023-04-06T12:29:33;8.70;;;2.85;;
72065;SDS011;59939;52.516;13.420;2023-04-06T12:32:37;6.57;;;2.50;;
72065;SDS011;59939;52.516;13.420;2023-04-06T12:35:41;7.78;;;2.80;;
72065;SDS011;59939;52.516;13.420;2023-04-06T12:38:48;8.98;;;3.15;;
72065;SDS011;59939;52.516;13.420;2023-04-06T12:41:52;7.90;;;2.80;;
72065;SDS011;59939;52.516;13.420;2023-04-06T12:44:56;8.43;;;2.85;;
72065;SDS011;59939;52.516;13.420;2023-04-06T12:48:00;9.50;;;2.80;;
72065;SDS011;59939;52.516;13.420;2023-04-06T12:51:04;9.48;;;2.90;;
72065;SDS011;59939;52.516;13.420;2023-04-06T12:54:08;5.85;;;2.65;;
72065;SDS011;59939;52.516;13.420;2023-04-06T12:57:13;9.60;;;2.45;;
72065;SDS011;59939;52.516;13.420;2023-04-06T13:00:17;8.93;;;3.10;;
72065;SDS011;59939;52.516;13.420;2023-04-06T13:03:21;8.10;;;3.05;;
72065;SDS011;59939;52.516;13.420;2023-04-06T13:06:28;6.47;;;2.40;;
72065;SDS011;59939;52.516;13.420;2023-04-06T13:09:36;9.32;;;3.03;;
72065;SDS011;59939;52.516;13.420;2023-04-06T13:12:39;7.28;;;2.70;;
72065;SDS011;59939;52.516;13.420;2023-04-06T13:15:44;6.13;;;2.38;;
72065;SDS011;59939;52.516;13.420;2023-04-06T13:18:48;7.68;;;2.40;;
72065;SDS011;59939;52.516;13.420;2023-04-06T13:21:53;6.15;;;2.75;;
72065;SDS011;59939;52.516;13.420;2023-04-06T13:24:57;9.07;;;2.83;;
72065;SDS011;59939;52.516;13.420;2023-04-06T13:28:03;8.27;;;2.40;;
72065;SDS011;59939;52.516;13.420;2023-04-06T13:31:07;7.07;;;2.42;;
72065;SDS011;59939;52.516;13.420;2023-04-06T13:34:11;7.50;;;3.20;;
72065;SDS011;59939;52.516;13.420;2023-04-06T13:37:19;8.23;;;2.58;;
72065;SDS011;59939;52.516;13.420;2023-04-06T13:40:23;7.47;;;2.80;;
72065;SDS011;59939;52.516;13.420;2023-04-06T13:43:41;8.10;;;2.60;;
72065;SDS011;59939;52.516;13.420;2023-04-06T13:46:45;8.70;;;2.85;;
72065;SDS011;59939;52.516;13.420;2023-04-06T13:49:51;7.47;;;2.53;;
72065;SDS011;59939;52.516;13.420;2023-04-06T13:52:56;7.85;;;2.75;;
72065;SDS011;59939;52.516;13.420;2023-04-06T13:56:08;9.52;;;2.75;;
72065;SDS011;59939;52.516;13.420;2023-04-06T13:59:13;7.45;;;2.90;;
72065;SDS011;59939;52.516;13.420;2023-04-06T14:02:24;8.77;;;2.90;;
72065;SDS011;59939;52.516;13.420;2023-04-06T14:05:31;8.30;;;3.05;;
72065;SDS011;59939;52.516;13.420;2023-04-06T14:08:39;9.18;;;2.85;;
72065;SDS011;59939;52.516;13.420;2023-04-06T14:11:43;8.65;;;2.75;;
72065;SDS011;59939;52.516;13.420;2023-04-06T14:18:23;10.38;;;3.08;;
72065;SDS011;59939;52.516;13.420;2023-04-06T14:21:27;6.32;;;2.45;;
72065;SDS011;59939;52.516;13.420;2023-04-06T14:24:31;6.22;;;2.85;;
72065;SDS011;59939;52.516;13.420;2023-04-06T14:27:35;10.40;;;2.90;;
72065;SDS011;59939;52.516;13.420;2023-04-06T14:30:45;7.40;;;2.83;;
72065;SDS011;59939;52.516;13.420;2023-04-06T14:33:49;5.65;;;2.50;;
72065;SDS011;59939;52.516;13.420;2023-04-06T14:36:57;5.20;;;2.42;;
72065;SDS011;59939;52.516;13.420;2023-04-06T14:40:02;6.55;;;2.75;;
72065;SDS011;59939;52.516;13.420;2023-04-06T14:43:09;8.15;;;2.47;;
72065;SDS011;59939;52.516;13.420;2023-04-06T14:46:15;7.88;;;2.70;;
72065;SDS011;59939;52.516;13.420;2023-04-06T14:49:25;9.55;;;3.15;;
72065;SDS011;59939;52.516;13.420;2023-04-06T14:52:28;6.82;;;2.50;;
72065;SDS011;59939;52.516;13.420;2023-04-06T14:55:38;7.47;;;2.45;;
72065;SDS011;59939;52.516;13.420;2023-04-06T14:58:42;7.85;;;2.75;;
72065;SDS011;59939;52.516;13.420;2023-04-06T15:05:17;8.20;;;3.03;;
72065;SDS011;59939;52.516;13.420;2023-04-06T15:08:21;9.00;;;2.72;;
72065;SDS011;59939;52.516;13.420;2023-04-06T15:11:25;5.60;;;2.55;;
72065;SDS011;59939;52.516;13.420;2023-04-06T15:14:29;7.38;;;2.92;;
72065;SDS011;59939;52.516;13.420;2023-04-06T15:17:34;6.05;;;2.20;;
72065;SDS011;59939;52.516;13.420;2023-04-06T15:20:38;8.32;;;3.08;;
72065;SDS011;59939;52.516;13.420;2023-04-06T15:23:41;8.70;;;3.30;;
72065;SDS011;59939;52.516;13.420;2023-04-06T15:26:45;7.15;;;2.78;;
72065;SDS011;59939;52.516;13.420;2023-04-06T15:29:49;7.55;;;2.90;;
72065;SDS011;59939;52.516;13.420;2023-04-06T15:32:59;5.78;;;2.42;;
72065;SDS011;59939;52.516;13.420;2023-04-06T15:36:06;8.32;;;2.83;;
72065;SDS011;59939;52.516;13.420;2023-04-06T15:39:12;5.97;;;2.83;;
72065;SDS011;59939;52.516;13.420;2023-04-06T15:42:23;6.93;;;2.50;;
72065;SDS011;59939;52.516;13.420;2023-04-06T15:45:27;7.35;;;3.08;;
72065;SDS011;59939;52.516;13.420;2023-04-06T15:48:30;8.45;;;2.65;;
72065;SDS011;59939;52.516;13.420;2023-04-06T15:51:35;6.28;;;3.08;;
72065;SDS011;59939;52.516;13.420;2023-04-06T15:54:38;8.88;;;2.65;;
72065;SDS011;59939;52.516;13.420;2023-04-06T15:57:43;9.85;;;2.60;;
72065;SDS011;59939;52.516;13.420;2023-04-06T16:00:47;8.52;;;2.47;;
72065;SDS011;59939;52.516;13.420;2023-04-06T16:03:59;8.25;;;2.95;;
72065;SDS011;59939;52.516;13.420;2023-04-06T16:07:06;7.78;;;2.83;;
72065;SDS011;59939;52.516;13.420;2023-04-06T16:10:10;7.57;;;2.95;;
72065;SDS011;59939;52.516;13.420;2023-04-06T16:13:14;6.53;;;2.42;;
72065;SDS011;59939;52.516;13.420;2023-04-06T16:16:19;7.05;;;2.88;;
72065;SDS011;59939;52.516;13.420;2023-04-06T16:19:23;8.48;;;2.70;;
72065;SDS011;59939;52.516;13.420;2023-04-06T16:22:28;7.88;;;3.03;;
72065;SDS011;59939;52.516;13.420;2023-04-06T16:25:32;8.07;;;2.88;;
72065;SDS011;59939;52.516;13.420;2023-04-06T16:28:36;9.05;;;3.13;;
72065;SDS011;59939;52.516;13.420;2023-04-06T16:31:39;10.45;;;2.90;;
72065;SDS011;59939;52.516;13.420;2023-04-06T16:34:44;6.80;;;2.83;;
72065;SDS011;59939;52.516;13.420;2023-04-06T16:37:49;7.10;;;2.80;;
72065;SDS011;59939;52.516;13.420;2023-04-06T16:41:00;6.95;;;2.83;;
72065;SDS011;59939;52.516;13.420;2023-04-06T16:44:04;6.43;;;2.85;;
72065;SDS011;59939;52.516;13.420;2023-04-06T16:47:08;6.10;;;2.80;;
72065;SDS011;59939;52.516;13.420;2023-04-06T16:50:12;6.57;;;2.80;;
72065;SDS011;59939;52.516;13.420;2023-04-06T16:53:18;6.57;;;2.42;;
72065;SDS011;59939;52.516;13.420;2023-04-06T16:56:22;7.93;;;2.92;;
72065;SDS011;59939;52.516;13.420;2023-04-06T16:59:27;6.72;;;2.55;;
72065;SDS011;59939;52.516;13.420;2023-04-06T17:02:31;6.07;;;2.50;;
72065;SDS011;59939;52.516;13.420;2023-04-06T17:05:45;8.40;;;2.57;;
72065;SDS011;59939;52.516;13.420;2023-04-06T17:08:51;6.23;;;2.40;;
72065;SDS011;59939;52.516;13.420;2023-04-06T17:15:26;6.50;;;2.63;;
72065;SDS011;59939;52.516;13.420;2023-04-06T17:18:31;8.98;;;2.97;;
72065;SDS011;59939;52.516;13.420;2023-04-06T17:21:35;6.43;;;2.70;;
72065;SDS011;59939;52.516;13.420;2023-04-06T17:24:39;9.50;;;3.23;;
72065;SDS011;59939;52.516;13.420;2023-04-06T17:27:45;11.13;;;3.43;;
72065;SDS011;59939;52.516;13.420;2023-04-06T17:30:51;9.80;;;3.00;;
72065;SDS011;59939;52.516;13.420;2023-04-06T17:33:55;6.90;;;3.00;;
72065;SDS011;59939;52.516;13.420;2023-04-06T17:36:59;9.43;;;3.10;;
72065;SDS011;59939;52.516;13.420;2023-04-06T17:40:04;8.00;;;2.87;;
72065;SDS011;59939;52.516;13.420;2023-04-06T17:43:08;8.73;;;2.70;;
72065;SDS011;59939;52.516;13.420;2023-04-06T17:46:12;6.57;;;2.30;;
72065;SDS011;59939;52.516;13.420;2023-04-06T17:49:16;9.67;;;2.83;;
72065;SDS011;59939;52.516;13.420;2023-04-06T17:52:19;8.50;;;2.67;;
72065;SDS011;59939;52.516;13.420;2023-04-06T17:55:23;11.80;;;3.50;;
72065;SDS011;59939;52.516;13.420;2023-04-06T17:58:27;9.13;;;3.13;;
72065;SDS011;59939;52.516;13.420;2023-04-06T18:01:33;9.07;;;3.00;;
72065;SDS011;59939;52.516;13.420;2023-04-06T18:04:37;11.67;;;3.83;;
72065;SDS011;59939;52.516;13.420;2023-04-06T18:07:44;12.47;;;3.37;;
72065;SDS011;59939;52.516;13.420;2023-04-06T18:10:48;10.97;;;3.27;;
72065;SDS011;59939;52.516;13.420;2023-04-06T18:13:52;10.57;;;3.53;;
72065;SDS011;59939;52.516;13.420;2023-04-06T18:16:56;11.27;;;3.93;;
72065;SDS011;59939;52.516;13.420;2023-04-06T18:20:00;10.40;;;3.90;;
72065;SDS011;59939;52.516;13.420;2023-04-06T18:23:05;11.33;;;3.83;;
72065;SDS011;59939;52.516;13.420;2023-04-06T18:26:13;12.83;;;4.53;;
72065;SDS011;59939;52.516;13.420;2023-04-06T18:29:32;12.10;;;4.37;;
72065;SDS011;59939;52.516;13.420;2023-04-06T18:32:40;11.33;;;3.83;;
72065;SDS011;59939;52.516;13.420;2023-04-06T18:35:44;13.00;;;4.53;;
72065;SDS011;59939;52.516;13.420;2023-04-06T18:38:49;11.73;;;4.93;;